Flight Track Log - Related Links

Times and Time Zones

All times are in EDT time to prevent confusion due to time zone crossing. See the CTA400 flight status page for this flight to view local times or setup timezone preferences in your user account.

Time Position Orientation Groundspeed Altitude Reporting Facility
EDT Latitude Longitude Course Direction KTS MPH feet Rate Location/Type
Fri 10:21:14 AM 33.6806 -101.7567 360° North 169 194 4,800  Level Fort Worth Center
Fri 10:22:21 AM 33.7286 -101.7564 360° North 168 193 6,100 891 Climbing Fort Worth Center
Fri 10:23:22 AM 33.7767 -101.7564 360° North 178 205 6,700 298 Climbing Fort Worth Center
Fri 10:24:22 AM 33.8369 -101.7594 358° North 219 252 6,700  Level Fort Worth Center
Fri 10:25:23 AM 33.9014 -101.7650 356° North 223 257 6,700  Level Fort Worth Center
Fri 10:26:23 AM 33.9639 -101.7681 358° North 219 252 6,700  Level Fort Worth Center
Fri 10:27:24 AM 34.0225 -101.7611 North 219 252 6,700 -55 Level Fort Worth Center
Fri 10:28:13 AM 34.0728 -101.7586 North 227 261 6,600 -55 Descending Fort Worth Center
Fri 10:29:13 AM 34.1336 -101.7517 North 233 268 6,600  Level Fort Worth Center
Fri 10:30:13 AM 34.1961 -101.7547 358° North 223 257 6,600  Level Fort Worth Center
Fri 10:31:13 AM 34.2567 -101.7528 North 218 251 6,600  Level Fort Worth Center
Fri 10:32:13 AM 34.3172 -101.7458 North 218 251 6,600  Level Fort Worth Center
Fri 10:33:13 AM 34.3761 -101.7386 North 218 251 6,600 54 Level Fort Worth Center
Fri 10:34:05 AM 34.4261 -101.7333 North 217 250 6,700  Climbing Albuquerque Center
Fri 10:35:07 AM 34.4872 -101.7272 North 218 251 6,600 -48 Descending Albuquerque Center
Fri 10:36:09 AM 34.5461 -101.7203 North 216 249 6,600 -48 Level Albuquerque Center
Fri 10:37:11 AM 34.6069 -101.7156 North 217 250 6,500  Descending Albuquerque Center
Fri 10:38:13 AM 34.6811 -101.7139 North 219 252 6,600  Climbing Albuquerque Center
Fri 10:39:15 AM 34.7417 -101.7111 North 219 252 6,500  Descending Albuquerque Center
Fri 10:40:17 AM 34.8025 -101.7106 360° North 219 252 6,600  Climbing Albuquerque Center
Fri 10:41:19 AM 34.8631 -101.7072 North 218 251 6,500  Descending Albuquerque Center
Fri 10:42:21 AM 34.9225 -101.7036 North 217 250 6,600 48 Climbing Albuquerque Center
Fri 10:43:23 AM 34.9831 -101.6983 North 217 250 6,600 -387 Level Albuquerque Center
Fri 10:44:25 AM 35.0567 -101.6872 North 220 253 5,800 -581 Descending Albuquerque Center
Fri 10:45:27 AM 35.1194 -101.6828 North 223 257 5,400 -387 Descending Albuquerque Center
Fri 10:46:29 AM 35.1758 -101.6750 North 218 251 5,000 -387 Descending Albuquerque Center
Fri 10:47:31 AM 35.2153 -101.6414 35° Northeast 194 223 4,600 -435 Descending Albuquerque Center
Fri 10:48:33 AM 35.2469 -101.6783 316° Northwest 162 186 4,100 -484 Descending Albuquerque Center
Fri 10:49:35 AM 35.2239 -101.7094 228° Southwest 136 157 3,600 -484 Descending Albuquerque Center

Login

Don't have an account? Register now (free) for customized features, flight alerts, and more!